sensor_id;sensor_type;location;lat;lon;timestamp;P1;durP1;ratioP1;P2;durP2;ratioP2
38190;SDS011;25191;47.510;19.124;2023-03-22T00:04:01;1060.90;;;974.23;;
38190;SDS011;25191;47.510;19.124;2023-03-22T00:14:02;1063.18;;;976.72;;
38190;SDS011;25191;47.510;19.124;2023-03-22T00:24:02;1065.00;;;978.70;;
38190;SDS011;25191;47.510;19.124;2023-03-22T00:34:03;1131.50;;;999.90;;
38190;SDS011;25191;47.510;19.124;2023-03-22T00:44:04;1096.68;;;998.40;;
38190;SDS011;25191;47.510;19.124;2023-03-22T00:54:05;614.40;;;557.57;;
38190;SDS011;25191;47.510;19.124;2023-03-22T01:04:05;570.50;;;516.90;;
38190;SDS011;25191;47.510;19.124;2023-03-22T01:14:06;550.72;;;498.48;;
38190;SDS011;25191;47.510;19.124;2023-03-22T01:24:08;535.58;;;484.48;;
38190;SDS011;25191;47.510;19.124;2023-03-22T01:44:20;465.50;;;419.55;;
38190;SDS011;25191;47.510;19.124;2023-03-22T01:54:33;466.42;;;420.55;;
38190;SDS011;25191;47.510;19.124;2023-03-22T02:04:39;439.00;;;395.13;;
38190;SDS011;25191;47.510;19.124;2023-03-22T02:46:01;459.63;;;414.20;;
38190;SDS011;25191;47.510;19.124;2023-03-22T02:56:10;452.67;;;407.77;;
38190;SDS011;25191;47.510;19.124;2023-03-22T03:06:15;458.90;;;413.85;;
38190;SDS011;25191;47.510;19.124;2023-03-22T03:16:19;450.23;;;405.65;;
38190;SDS011;25191;47.510;19.124;2023-03-22T03:36:21;446.35;;;402.20;;
38190;SDS011;25191;47.510;19.124;2023-03-22T03:46:25;450.85;;;406.33;;
38190;SDS011;25191;47.510;19.124;2023-03-22T03:56:26;440.20;;;396.43;;
38190;SDS011;25191;47.510;19.124;2023-03-22T04:06:27;422.70;;;380.73;;
38190;SDS011;25191;47.510;19.124;2023-03-22T04:16:28;422.08;;;379.80;;
38190;SDS011;25191;47.510;19.124;2023-03-22T04:26:28;423.77;;;381.70;;
38190;SDS011;25191;47.510;19.124;2023-03-22T04:36:29;424.50;;;382.10;;
38190;SDS011;25191;47.510;19.124;2023-03-22T04:46:30;447.83;;;403.55;;
38190;SDS011;25191;47.510;19.124;2023-03-22T04:56:32;459.58;;;414.52;;
38190;SDS011;25191;47.510;19.124;2023-03-22T05:06:42;438.10;;;394.58;;
38190;SDS011;25191;47.510;19.124;2023-03-22T05:16:43;444.40;;;400.27;;
38190;SDS011;25191;47.510;19.124;2023-03-22T05:36:52;468.05;;;421.75;;
38190;SDS011;25191;47.510;19.124;2023-03-22T05:46:53;450.08;;;405.05;;
38190;SDS011;25191;47.510;19.124;2023-03-22T05:56:53;368.77;;;331.45;;
38190;SDS011;25191;47.510;19.124;2023-03-22T06:06:56;494.00;;;445.80;;
38190;SDS011;25191;47.510;19.124;2023-03-22T06:16:56;448.48;;;403.63;;
38190;SDS011;25191;47.510;19.124;2023-03-22T06:26:56;456.40;;;411.40;;
38190;SDS011;25191;47.510;19.124;2023-03-22T06:36:57;483.00;;;435.58;;
38190;SDS011;25191;47.510;19.124;2023-03-22T06:47:03;466.38;;;420.58;;
38190;SDS011;25191;47.510;19.124;2023-03-22T06:57:03;487.55;;;439.58;;
38190;SDS011;25191;47.510;19.124;2023-03-22T07:07:06;484.30;;;437.13;;
38190;SDS011;25191;47.510;19.124;2023-03-22T07:17:06;487.30;;;439.63;;
38190;SDS011;25191;47.510;19.124;2023-03-22T07:27:08;563.08;;;510.17;;
38190;SDS011;25191;47.510;19.124;2023-03-22T07:37:08;918.88;;;840.28;;
38190;SDS011;25191;47.510;19.124;2023-03-22T07:47:09;469.42;;;422.80;;
38190;SDS011;25191;47.510;19.124;2023-03-22T07:57:11;440.52;;;396.17;;
38190;SDS011;25191;47.510;19.124;2023-03-22T08:07:12;393.95;;;354.33;;
38190;SDS011;25191;47.510;19.124;2023-03-22T08:17:14;410.07;;;368.77;;
38190;SDS011;25191;47.510;19.124;2023-03-22T08:27:16;409.85;;;368.35;;
38190;SDS011;25191;47.510;19.124;2023-03-22T08:37:18;402.10;;;361.65;;
38190;SDS011;25191;47.510;19.124;2023-03-22T08:47:21;458.17;;;412.42;;
38190;SDS011;25191;47.510;19.124;2023-03-22T08:57:22;414.98;;;372.75;;
38190;SDS011;25191;47.510;19.124;2023-03-22T09:07:23;401.85;;;361.02;;
38190;SDS011;25191;47.510;19.124;2023-03-22T09:17:23;385.52;;;346.73;;
38190;SDS011;25191;47.510;19.124;2023-03-22T09:27:24;395.02;;;355.27;;
38190;SDS011;25191;47.510;19.124;2023-03-22T09:37:25;400.88;;;360.17;;
38190;SDS011;25191;47.510;19.124;2023-03-22T09:47:31;483.95;;;436.42;;
38190;SDS011;25191;47.510;19.124;2023-03-22T09:57:36;377.38;;;339.48;;
38190;SDS011;25191;47.510;19.124;2023-03-22T10:07:52;407.70;;;366.38;;
38190;SDS011;25191;47.510;19.124;2023-03-22T10:18:05;415.45;;;373.30;;
38190;SDS011;25191;47.510;19.124;2023-03-22T10:28:19;398.50;;;358.38;;
38190;SDS011;25191;47.510;19.124;2023-03-22T10:38:27;460.35;;;414.52;;
38190;SDS011;25191;47.510;19.124;2023-03-22T10:48:32;405.33;;;365.05;;
38190;SDS011;25191;47.510;19.124;2023-03-22T10:58:42;430.95;;;387.73;;
38190;SDS011;25191;47.510;19.124;2023-03-22T11:08:44;476.98;;;430.40;;
38190;SDS011;25191;47.510;19.124;2023-03-22T11:18:49;418.90;;;377.30;;
38190;SDS011;25191;47.510;19.124;2023-03-22T11:28:50;428.33;;;385.45;;
38190;SDS011;25191;47.510;19.124;2023-03-22T11:39:05;423.08;;;381.15;;
38190;SDS011;25191;47.510;19.124;2023-03-22T11:49:07;463.70;;;418.33;;
38190;SDS011;25191;47.510;19.124;2023-03-22T11:59:20;539.40;;;488.30;;
38190;SDS011;25191;47.510;19.124;2023-03-22T12:09:40;545.65;;;494.42;;
38190;SDS011;25191;47.510;19.124;2023-03-22T12:29:58;568.67;;;515.80;;
38190;SDS011;25191;47.510;19.124;2023-03-22T12:40:14;548.17;;;496.67;;
38190;SDS011;25191;47.510;19.124;2023-03-22T12:50:24;509.83;;;461.02;;
38190;SDS011;25191;47.510;19.124;2023-03-22T13:31:15;519.47;;;470.00;;
38190;SDS011;25191;47.510;19.124;2023-03-22T13:41:32;529.72;;;479.48;;
38190;SDS011;25191;47.510;19.124;2023-03-22T13:51:34;562.63;;;509.85;;
38190;SDS011;25191;47.510;19.124;2023-03-22T14:01:46;626.63;;;569.75;;
38190;SDS011;25191;47.510;19.124;2023-03-22T14:22:26;619.58;;;563.05;;
38190;SDS011;25191;47.510;19.124;2023-03-22T14:32:32;540.92;;;489.48;;
38190;SDS011;25191;47.510;19.124;2023-03-22T14:42:37;577.03;;;523.03;;
38190;SDS011;25191;47.510;19.124;2023-03-22T14:52:38;607.25;;;551.45;;
38190;SDS011;25191;47.510;19.124;2023-03-22T15:02:45;618.53;;;561.88;;
38190;SDS011;25191;47.510;19.124;2023-03-22T15:12:48;582.67;;;528.63;;
38190;SDS011;25191;47.510;19.124;2023-03-22T15:22:52;616.22;;;559.78;;
38190;SDS011;25191;47.510;19.124;2023-03-22T15:33:04;709.40;;;646.35;;
38190;SDS011;25191;47.510;19.124;2023-03-22T15:43:54;731.47;;;666.63;;
38190;SDS011;25191;47.510;19.124;2023-03-22T15:53:34;721.13;;;656.83;;
38190;SDS011;25191;47.510;19.124;2023-03-22T16:03:39;746.37;;;680.07;;
38190;SDS011;25191;47.510;19.124;2023-03-22T16:13:41;275.27;;;248.35;;
38190;SDS011;25191;47.510;19.124;2023-03-22T16:23:42;307.17;;;277.02;;
38190;SDS011;25191;47.510;19.124;2023-03-22T16:33:44;330.43;;;298.10;;
38190;SDS011;25191;47.510;19.124;2023-03-22T16:43:46;249.83;;;225.80;;
38190;SDS011;25191;47.510;19.124;2023-03-22T16:53:46;290.42;;;262.08;;
38190;SDS011;25191;47.510;19.124;2023-03-22T17:03:49;337.52;;;304.58;;
38190;SDS011;25191;47.510;19.124;2023-03-22T17:13:51;264.70;;;239.32;;
38190;SDS011;25191;47.510;19.124;2023-03-22T17:23:52;226.10;;;204.60;;
38190;SDS011;25191;47.510;19.124;2023-03-22T17:33:52;240.30;;;217.25;;
38190;SDS011;25191;47.510;19.124;2023-03-22T17:43:53;275.77;;;248.95;;
38190;SDS011;25191;47.510;19.124;2023-03-22T17:53:54;283.67;;;255.90;;
38190;SDS011;25191;47.510;19.124;2023-03-22T18:03:54;302.35;;;272.95;;
38190;SDS011;25191;47.510;19.124;2023-03-22T18:13:55;280.00;;;252.65;;
38190;SDS011;25191;47.510;19.124;2023-03-22T18:23:56;206.20;;;187.07;;
38190;SDS011;25191;47.510;19.124;2023-03-22T18:33:57;192.20;;;174.23;;
38190;SDS011;25191;47.510;19.124;2023-03-22T18:43:58;225.07;;;203.23;;
38190;SDS011;25191;47.510;19.124;2023-03-22T18:54:00;235.10;;;212.55;;
38190;SDS011;25191;47.510;19.124;2023-03-22T19:04:02;279.80;;;252.90;;
38190;SDS011;25191;47.510;19.124;2023-03-22T19:14:04;197.88;;;179.43;;
38190;SDS011;25191;47.510;19.124;2023-03-22T19:24:08;208.40;;;188.85;;
38190;SDS011;25191;47.510;19.124;2023-03-22T19:34:12;231.38;;;208.80;;
38190;SDS011;25191;47.510;19.124;2023-03-22T19:44:13;240.32;;;217.30;;
38190;SDS011;25191;47.510;19.124;2023-03-22T19:54:20;229.48;;;207.40;;
38190;SDS011;25191;47.510;19.124;2023-03-22T20:04:21;231.82;;;209.68;;
38190;SDS011;25191;47.510;19.124;2023-03-22T20:14:22;225.80;;;204.20;;
38190;SDS011;25191;47.510;19.124;2023-03-22T20:24:23;240.60;;;216.93;;
38190;SDS011;25191;47.510;19.124;2023-03-22T20:34:24;246.52;;;222.85;;
38190;SDS011;25191;47.510;19.124;2023-03-22T20:44:25;207.65;;;188.10;;
38190;SDS011;25191;47.510;19.124;2023-03-22T20:54:26;201.15;;;182.30;;
38190;SDS011;25191;47.510;19.124;2023-03-22T21:04:27;200.20;;;181.45;;
38190;SDS011;25191;47.510;19.124;2023-03-22T21:14:27;223.13;;;202.02;;
38190;SDS011;25191;47.510;19.124;2023-03-22T21:24:27;216.25;;;195.73;;
38190;SDS011;25191;47.510;19.124;2023-03-22T21:34:28;240.23;;;217.23;;
38190;SDS011;25191;47.510;19.124;2023-03-22T21:44:29;224.30;;;203.20;;
38190;SDS011;25191;47.510;19.124;2023-03-22T21:54:30;245.50;;;222.03;;
38190;SDS011;25191;47.510;19.124;2023-03-22T22:04:31;227.90;;;206.07;;
38190;SDS011;25191;47.510;19.124;2023-03-22T22:14:31;255.88;;;231.43;;
38190;SDS011;25191;47.510;19.124;2023-03-22T22:24:32;238.25;;;215.65;;
38190;SDS011;25191;47.510;19.124;2023-03-22T22:34:32;258.48;;;233.68;;
38190;SDS011;25191;47.510;19.124;2023-03-22T22:44:33;263.52;;;238.32;;
38190;SDS011;25191;47.510;19.124;2023-03-22T22:54:34;271.07;;;245.17;;
38190;SDS011;25191;47.510;19.124;2023-03-22T23:04:35;272.17;;;245.95;;
38190;SDS011;25191;47.510;19.124;2023-03-22T23:14:35;344.88;;;311.65;;
38190;SDS011;25191;47.510;19.124;2023-03-22T23:24:36;380.30;;;343.47;;
38190;SDS011;25191;47.510;19.124;2023-03-22T23:34:36;328.98;;;297.10;;
38190;SDS011;25191;47.510;19.124;2023-03-22T23:44:37;226.50;;;204.95;;
38190;SDS011;25191;47.510;19.124;2023-03-22T23:54:37;204.88;;;185.82;;
